sensor_id;sensor_type;location;lat;lon;timestamp;temperature;humidity
9311;DHT22;4694;52.464;13.480;2022-08-19T00:00:44;21.70;99.90
9311;DHT22;4694;52.464;13.480;2022-08-19T00:03:10;21.70;99.90
9311;DHT22;4694;52.464;13.480;2022-08-19T00:05:39;21.80;99.90
9311;DHT22;4694;52.464;13.480;2022-08-19T00:08:07;21.70;99.90
9311;DHT22;4694;52.464;13.480;2022-08-19T00:10:34;21.60;99.90
9311;DHT22;4694;52.464;13.480;2022-08-19T00:13:01;21.60;99.90
9311;DHT22;4694;52.464;13.480;2022-08-19T00:15:27;21.70;99.90
9311;DHT22;4694;52.464;13.480;2022-08-19T00:17:54;21.70;99.90
9311;DHT22;4694;52.464;13.480;2022-08-19T00:20:21;21.70;99.90
9311;DHT22;4694;52.464;13.480;2022-08-19T00:22:49;21.70;99.90
9311;DHT22;4694;52.464;13.480;2022-08-19T00:25:17;21.70;99.90
9311;DHT22;4694;52.464;13.480;2022-08-19T00:27:43;21.70;99.90
9311;DHT22;4694;52.464;13.480;2022-08-19T00:30:11;21.70;99.90
9311;DHT22;4694;52.464;13.480;2022-08-19T00:32:38;21.70;99.90
9311;DHT22;4694;52.464;13.480;2022-08-19T00:35:06;21.70;99.90
9311;DHT22;4694;52.464;13.480;2022-08-19T00:37:33;21.70;99.90
9311;DHT22;4694;52.464;13.480;2022-08-19T00:40:04;21.60;99.90
9311;DHT22;4694;52.464;13.480;2022-08-19T00:42:30;21.60;99.90
9311;DHT22;4694;52.464;13.480;2022-08-19T00:44:58;21.60;99.90
9311;DHT22;4694;52.464;13.480;2022-08-19T00:47:24;21.60;99.90
9311;DHT22;4694;52.464;13.480;2022-08-19T00:49:54;21.60;99.90
9311;DHT22;4694;52.464;13.480;2022-08-19T00:52:24;21.60;99.90
9311;DHT22;4694;52.464;13.480;2022-08-19T00:54:54;21.60;99.90
9311;DHT22;4694;52.464;13.480;2022-08-19T00:57:28;21.60;99.90
9311;DHT22;4694;52.464;13.480;2022-08-19T00:59:56;21.50;99.90
9311;DHT22;4694;52.464;13.480;2022-08-19T01:02:24;21.40;99.90
9311;DHT22;4694;52.464;13.480;2022-08-19T01:04:51;21.40;99.90
9311;DHT22;4694;52.464;13.480;2022-08-19T01:07:18;21.40;99.90
9311;DHT22;4694;52.464;13.480;2022-08-19T01:09:44;21.40;99.90
9311;DHT22;4694;52.464;13.480;2022-08-19T01:12:12;21.30;99.90
9311;DHT22;4694;52.464;13.480;2022-08-19T01:14:40;21.30;99.90
9311;DHT22;4694;52.464;13.480;2022-08-19T01:17:08;21.30;99.90
9311;DHT22;4694;52.464;13.480;2022-08-19T01:19:36;21.20;99.90
9311;DHT22;4694;52.464;13.480;2022-08-19T01:22:08;21.20;99.90
9311;DHT22;4694;52.464;13.480;2022-08-19T01:24:39;21.10;99.90
9311;DHT22;4694;52.464;13.480;2022-08-19T01:27:07;21.00;99.90
9311;DHT22;4694;52.464;13.480;2022-08-19T01:29:38;21.00;99.90
9311;DHT22;4694;52.464;13.480;2022-08-19T01:32:06;21.00;99.90
9311;DHT22;4694;52.464;13.480;2022-08-19T01:34:33;20.90;99.90
9311;DHT22;4694;52.464;13.480;2022-08-19T01:37:01;20.80;99.90
9311;DHT22;4694;52.464;13.480;2022-08-19T01:39:33;20.80;99.90
9311;DHT22;4694;52.464;13.480;2022-08-19T01:42:01;20.70;99.90
9311;DHT22;4694;52.464;13.480;2022-08-19T01:44:28;20.70;99.90
9311;DHT22;4694;52.464;13.480;2022-08-19T01:46:55;20.40;99.90
9311;DHT22;4694;52.464;13.480;2022-08-19T01:49:23;20.40;99.90
9311;DHT22;4694;52.464;13.480;2022-08-19T01:51:51;20.40;99.90
9311;DHT22;4694;52.464;13.480;2022-08-19T01:54:20;20.40;99.90
9311;DHT22;4694;52.464;13.480;2022-08-19T01:56:47;20.40;99.90
9311;DHT22;4694;52.464;13.480;2022-08-19T01:59:17;20.30;99.90
9311;DHT22;4694;52.464;13.480;2022-08-19T02:01:45;20.20;99.90
9311;DHT22;4694;52.464;13.480;2022-08-19T02:04:12;20.10;99.90
9311;DHT22;4694;52.464;13.480;2022-08-19T02:06:39;20.40;99.90
9311;DHT22;4694;52.464;13.480;2022-08-19T02:09:07;20.20;99.90
9311;DHT22;4694;52.464;13.480;2022-08-19T02:11:35;20.10;99.90
9311;DHT22;4694;52.464;13.480;2022-08-19T02:14:05;20.20;99.90
9311;DHT22;4694;52.464;13.480;2022-08-19T02:16:33;20.10;99.90
9311;DHT22;4694;52.464;13.480;2022-08-19T02:19:00;20.00;99.90
9311;DHT22;4694;52.464;13.480;2022-08-19T02:21:28;20.00;99.90
9311;DHT22;4694;52.464;13.480;2022-08-19T02:23:54;20.00;99.90
9311;DHT22;4694;52.464;13.480;2022-08-19T02:26:21;19.90;99.90
9311;DHT22;4694;52.464;13.480;2022-08-19T02:28:48;19.90;99.90
9311;DHT22;4694;52.464;13.480;2022-08-19T02:31:18;19.90;99.90
9311;DHT22;4694;52.464;13.480;2022-08-19T02:33:47;20.00;99.90
9311;DHT22;4694;52.464;13.480;2022-08-19T02:36:14;20.10;99.90
9311;DHT22;4694;52.464;13.480;2022-08-19T02:38:43;20.20;99.90
9311;DHT22;4694;52.464;13.480;2022-08-19T02:41:12;20.10;99.90
9311;DHT22;4694;52.464;13.480;2022-08-19T02:43:40;20.00;99.90
9311;DHT22;4694;52.464;13.480;2022-08-19T02:46:12;20.30;99.90
9311;DHT22;4694;52.464;13.480;2022-08-19T02:48:39;20.10;99.90
9311;DHT22;4694;52.464;13.480;2022-08-19T02:51:07;20.10;99.90
9311;DHT22;4694;52.464;13.480;2022-08-19T02:53:33;20.10;99.90
9311;DHT22;4694;52.464;13.480;2022-08-19T02:56:00;20.10;99.90
9311;DHT22;4694;52.464;13.480;2022-08-19T02:58:26;20.00;99.90
9311;DHT22;4694;52.464;13.480;2022-08-19T03:00:55;20.10;99.90
9311;DHT22;4694;52.464;13.480;2022-08-19T03:03:22;20.10;99.90
9311;DHT22;4694;52.464;13.480;2022-08-19T03:05:49;20.10;99.90
9311;DHT22;4694;52.464;13.480;2022-08-19T03:08:17;20.10;99.90
9311;DHT22;4694;52.464;13.480;2022-08-19T03:10:46;20.10;99.90
9311;DHT22;4694;52.464;13.480;2022-08-19T03:13:15;20.10;99.90
9311;DHT22;4694;52.464;13.480;2022-08-19T03:15:43;20.10;99.90
9311;DHT22;4694;52.464;13.480;2022-08-19T03:18:10;20.10;99.90
9311;DHT22;4694;52.464;13.480;2022-08-19T03:20:41;20.00;99.90
9311;DHT22;4694;52.464;13.480;2022-08-19T03:23:08;20.00;99.90
9311;DHT22;4694;52.464;13.480;2022-08-19T03:25:38;20.00;99.90
9311;DHT22;4694;52.464;13.480;2022-08-19T03:28:07;20.00;99.90
9311;DHT22;4694;52.464;13.480;2022-08-19T03:30:34;20.00;99.90
9311;DHT22;4694;52.464;13.480;2022-08-19T03:33:01;20.00;99.90
9311;DHT22;4694;52.464;13.480;2022-08-19T03:35:28;20.00;99.90
9311;DHT22;4694;52.464;13.480;2022-08-19T03:37:54;20.00;99.90
9311;DHT22;4694;52.464;13.480;2022-08-19T03:40:21;20.00;99.90
9311;DHT22;4694;52.464;13.480;2022-08-19T03:42:49;20.00;99.90
9311;DHT22;4694;52.464;13.480;2022-08-19T03:45:16;20.00;99.90
9311;DHT22;4694;52.464;13.480;2022-08-19T03:47:43;20.00;99.90
9311;DHT22;4694;52.464;13.480;2022-08-19T03:50:10;20.00;99.90
9311;DHT22;4694;52.464;13.480;2022-08-19T03:52:37;20.00;99.90
9311;DHT22;4694;52.464;13.480;2022-08-19T03:55:05;20.00;99.90
9311;DHT22;4694;52.464;13.480;2022-08-19T03:57:33;19.90;99.90
9311;DHT22;4694;52.464;13.480;2022-08-19T04:00:01;19.90;99.90
9311;DHT22;4694;52.464;13.480;2022-08-19T04:02:30;19.90;99.90
9311;DHT22;4694;52.464;13.480;2022-08-19T04:04:56;19.90;99.90
9311;DHT22;4694;52.464;13.480;2022-08-19T04:07:23;19.90;99.90
9311;DHT22;4694;52.464;13.480;2022-08-19T04:09:50;19.90;99.90
9311;DHT22;4694;52.464;13.480;2022-08-19T04:12:17;20.00;99.90
9311;DHT22;4694;52.464;13.480;2022-08-19T04:14:45;20.00;99.90
9311;DHT22;4694;52.464;13.480;2022-08-19T04:17:13;20.00;99.90
9311;DHT22;4694;52.464;13.480;2022-08-19T04:19:40;20.00;99.90
9311;DHT22;4694;52.464;13.480;2022-08-19T04:22:08;20.00;99.90
9311;DHT22;4694;52.464;13.480;2022-08-19T04:24:36;20.00;99.90
9311;DHT22;4694;52.464;13.480;2022-08-19T04:27:04;20.10;99.90
9311;DHT22;4694;52.464;13.480;2022-08-19T04:29:31;20.10;99.90
9311;DHT22;4694;52.464;13.480;2022-08-19T04:31:58;20.10;99.90
9311;DHT22;4694;52.464;13.480;2022-08-19T04:34:28;20.20;99.90
9311;DHT22;4694;52.464;13.480;2022-08-19T04:36:56;20.20;99.90
9311;DHT22;4694;52.464;13.480;2022-08-19T04:39:25;20.30;99.90
9311;DHT22;4694;52.464;13.480;2022-08-19T04:42:12;20.30;99.90
9311;DHT22;4694;52.464;13.480;2022-08-19T04:44:56;20.30;99.90
9311;DHT22;4694;52.464;13.480;2022-08-19T04:47:23;20.70;99.90
9311;DHT22;4694;52.464;13.480;2022-08-19T04:49:51;20.80;99.90
9311;DHT22;4694;52.464;13.480;2022-08-19T04:52:18;20.70;99.90
9311;DHT22;4694;52.464;13.480;2022-08-19T04:54:45;20.60;99.90
9311;DHT22;4694;52.464;13.480;2022-08-19T04:57:11;20.70;99.90
9311;DHT22;4694;52.464;13.480;2022-08-19T04:59:38;20.70;99.90
9311;DHT22;4694;52.464;13.480;2022-08-19T05:02:07;20.70;99.90
9311;DHT22;4694;52.464;13.480;2022-08-19T05:04:34;20.80;99.90
9311;DHT22;4694;52.464;13.480;2022-08-19T05:07:04;20.80;99.90
9311;DHT22;4694;52.464;13.480;2022-08-19T05:09:31;20.80;99.90
9311;DHT22;4694;52.464;13.480;2022-08-19T05:11:58;20.90;99.90
9311;DHT22;4694;52.464;13.480;2022-08-19T05:14:25;20.80;99.90
9311;DHT22;4694;52.464;13.480;2022-08-19T05:16:52;20.70;99.90
9311;DHT22;4694;52.464;13.480;2022-08-19T05:19:18;20.80;99.90
9311;DHT22;4694;52.464;13.480;2022-08-19T05:22:04;20.80;99.90
9311;DHT22;4694;52.464;13.480;2022-08-19T05:24:48;21.00;99.90
9311;DHT22;4694;52.464;13.480;2022-08-19T05:27:15;21.00;99.90
9311;DHT22;4694;52.464;13.480;2022-08-19T05:29:42;21.10;99.90
9311;DHT22;4694;52.464;13.480;2022-08-19T05:32:08;21.10;99.90
9311;DHT22;4694;52.464;13.480;2022-08-19T05:34:36;21.60;99.90
9311;DHT22;4694;52.464;13.480;2022-08-19T05:37:05;21.50;99.90
9311;DHT22;4694;52.464;13.480;2022-08-19T05:39:34;21.80;99.90
9311;DHT22;4694;52.464;13.480;2022-08-19T05:42:04;21.70;99.90
9311;DHT22;4694;52.464;13.480;2022-08-19T05:44:34;22.10;99.90
9311;DHT22;4694;52.464;13.480;2022-08-19T05:47:03;22.60;99.90
9311;DHT22;4694;52.464;13.480;2022-08-19T05:49:32;22.60;99.90
9311;DHT22;4694;52.464;13.480;2022-08-19T05:52:04;22.70;99.90
9311;DHT22;4694;52.464;13.480;2022-08-19T05:54:31;22.30;99.90
9311;DHT22;4694;52.464;13.480;2022-08-19T05:56:57;22.10;99.90
9311;DHT22;4694;52.464;13.480;2022-08-19T05:59:24;22.10;99.90
9311;DHT22;4694;52.464;13.480;2022-08-19T06:01:52;21.90;99.90
9311;DHT22;4694;52.464;13.480;2022-08-19T06:04:21;21.80;99.90
9311;DHT22;4694;52.464;13.480;2022-08-19T06:06:49;22.00;99.90
9311;DHT22;4694;52.464;13.480;2022-08-19T06:09:19;21.90;99.90
9311;DHT22;4694;52.464;13.480;2022-08-19T06:11:47;22.00;99.90
9311;DHT22;4694;52.464;13.480;2022-08-19T06:14:17;21.90;99.90
9311;DHT22;4694;52.464;13.480;2022-08-19T06:16:46;21.90;99.90
9311;DHT22;4694;52.464;13.480;2022-08-19T06:19:15;22.10;99.90
9311;DHT22;4694;52.464;13.480;2022-08-19T06:21:44;22.00;99.90
9311;DHT22;4694;52.464;13.480;2022-08-19T06:24:14;22.00;99.90
9311;DHT22;4694;52.464;13.480;2022-08-19T06:26:45;22.00;99.90
9311;DHT22;4694;52.464;13.480;2022-08-19T06:29:14;22.30;99.90
9311;DHT22;4694;52.464;13.480;2022-08-19T06:31:43;22.80;99.90
9311;DHT22;4694;52.464;13.480;2022-08-19T06:34:10;23.00;99.90
9311;DHT22;4694;52.464;13.480;2022-08-19T06:36:40;23.10;99.90
9311;DHT22;4694;52.464;13.480;2022-08-19T06:39:09;23.30;99.90
9311;DHT22;4694;52.464;13.480;2022-08-19T06:41:37;23.30;99.90
9311;DHT22;4694;52.464;13.480;2022-08-19T06:44:06;23.10;99.90
9311;DHT22;4694;52.464;13.480;2022-08-19T06:46:33;23.10;99.90
9311;DHT22;4694;52.464;13.480;2022-08-19T06:49:00;23.10;99.90
9311;DHT22;4694;52.464;13.480;2022-08-19T06:51:27;23.10;99.90
9311;DHT22;4694;52.464;13.480;2022-08-19T06:53:55;23.40;99.90
9311;DHT22;4694;52.464;13.480;2022-08-19T06:56:24;23.50;99.90
9311;DHT22;4694;52.464;13.480;2022-08-19T06:58:56;23.40;99.90
9311;DHT22;4694;52.464;13.480;2022-08-19T07:01:24;23.30;99.90
9311;DHT22;4694;52.464;13.480;2022-08-19T07:03:50;23.10;99.90
9311;DHT22;4694;52.464;13.480;2022-08-19T07:06:18;22.90;99.90
9311;DHT22;4694;52.464;13.480;2022-08-19T07:08:46;22.80;99.90
9311;DHT22;4694;52.464;13.480;2022-08-19T07:11:15;22.80;99.90
9311;DHT22;4694;52.464;13.480;2022-08-19T07:13:42;22.80;99.90
9311;DHT22;4694;52.464;13.480;2022-08-19T07:16:11;22.90;99.90
9311;DHT22;4694;52.464;13.480;2022-08-19T07:18:39;23.00;99.90
9311;DHT22;4694;52.464;13.480;2022-08-19T07:21:07;23.10;99.90
9311;DHT22;4694;52.464;13.480;2022-08-19T07:23:34;23.00;99.90
9311;DHT22;4694;52.464;13.480;2022-08-19T07:26:04;23.00;99.90
9311;DHT22;4694;52.464;13.480;2022-08-19T07:28:31;23.00;99.90
9311;DHT22;4694;52.464;13.480;2022-08-19T07:30:58;22.90;99.90
9311;DHT22;4694;52.464;13.480;2022-08-19T07:33:27;23.10;99.90
9311;DHT22;4694;52.464;13.480;2022-08-19T07:35:56;23.10;99.90
9311;DHT22;4694;52.464;13.480;2022-08-19T07:38:23;23.20;99.90
9311;DHT22;4694;52.464;13.480;2022-08-19T07:40:50;23.00;99.90
9311;DHT22;4694;52.464;13.480;2022-08-19T07:43:17;23.10;99.90
9311;DHT22;4694;52.464;13.480;2022-08-19T07:45:51;23.20;99.90
9311;DHT22;4694;52.464;13.480;2022-08-19T07:48:18;23.30;99.90
9311;DHT22;4694;52.464;13.480;2022-08-19T07:50:45;23.50;99.90
9311;DHT22;4694;52.464;13.480;2022-08-19T07:53:15;23.60;99.90
9311;DHT22;4694;52.464;13.480;2022-08-19T07:55:41;23.40;99.90
9311;DHT22;4694;52.464;13.480;2022-08-19T07:58:09;23.40;99.90
9311;DHT22;4694;52.464;13.480;2022-08-19T08:00:35;23.40;99.90
9311;DHT22;4694;52.464;13.480;2022-08-19T08:03:02;23.40;99.90
9311;DHT22;4694;52.464;13.480;2022-08-19T08:05:29;23.50;99.90
9311;DHT22;4694;52.464;13.480;2022-08-19T08:08:16;23.30;99.90
9311;DHT22;4694;52.464;13.480;2022-08-19T08:11:02;23.30;99.90
9311;DHT22;4694;52.464;13.480;2022-08-19T08:13:29;23.40;99.90
9311;DHT22;4694;52.464;13.480;2022-08-19T08:15:56;23.40;99.90
9311;DHT22;4694;52.464;13.480;2022-08-19T08:18:23;23.20;99.90
9311;DHT22;4694;52.464;13.480;2022-08-19T08:20:50;23.20;99.90
9311;DHT22;4694;52.464;13.480;2022-08-19T08:23:18;23.40;99.90
9311;DHT22;4694;52.464;13.480;2022-08-19T08:25:51;23.60;99.90
9311;DHT22;4694;52.464;13.480;2022-08-19T08:28:19;23.60;99.90
9311;DHT22;4694;52.464;13.480;2022-08-19T08:30:46;23.70;99.90
9311;DHT22;4694;52.464;13.480;2022-08-19T08:33:14;23.90;99.90
9311;DHT22;4694;52.464;13.480;2022-08-19T08:35:43;24.00;99.90
9311;DHT22;4694;52.464;13.480;2022-08-19T08:38:11;24.20;99.90
9311;DHT22;4694;52.464;13.480;2022-08-19T08:40:45;24.80;99.90
9311;DHT22;4694;52.464;13.480;2022-08-19T08:43:24;24.90;99.90
9311;DHT22;4694;52.464;13.480;2022-08-19T08:46:03;24.80;99.90
9311;DHT22;4694;52.464;13.480;2022-08-19T08:48:36;25.30;99.90
9311;DHT22;4694;52.464;13.480;2022-08-19T08:51:05;24.80;99.90
9311;DHT22;4694;52.464;13.480;2022-08-19T08:53:34;24.90;99.90
9311;DHT22;4694;52.464;13.480;2022-08-19T08:56:06;24.80;99.90
9311;DHT22;4694;52.464;13.480;2022-08-19T08:58:50;24.60;99.90
9311;DHT22;4694;52.464;13.480;2022-08-19T09:01:17;24.30;99.90
9311;DHT22;4694;52.464;13.480;2022-08-19T09:03:44;24.00;99.90
9311;DHT22;4694;52.464;13.480;2022-08-19T09:06:14;24.30;99.90
9311;DHT22;4694;52.464;13.480;2022-08-19T09:09:00;24.40;99.90
9311;DHT22;4694;52.464;13.480;2022-08-19T09:11:38;24.70;99.90
9311;DHT22;4694;52.464;13.480;2022-08-19T09:14:13;24.80;99.90
9311;DHT22;4694;52.464;13.480;2022-08-19T09:16:42;25.00;99.90
9311;DHT22;4694;52.464;13.480;2022-08-19T09:19:09;25.00;99.90
9311;DHT22;4694;52.464;13.480;2022-08-19T09:21:36;25.00;99.90
9311;DHT22;4694;52.464;13.480;2022-08-19T09:24:04;25.30;99.90
9311;DHT22;4694;52.464;13.480;2022-08-19T09:26:33;25.20;99.90
9311;DHT22;4694;52.464;13.480;2022-08-19T09:29:00;25.00;99.90
9311;DHT22;4694;52.464;13.480;2022-08-19T09:31:31;25.40;99.90
9311;DHT22;4694;52.464;13.480;2022-08-19T09:33:58;24.80;99.90
9311;DHT22;4694;52.464;13.480;2022-08-19T09:36:27;24.20;99.90
9311;DHT22;4694;52.464;13.480;2022-08-19T09:38:55;24.30;99.90
9311;DHT22;4694;52.464;13.480;2022-08-19T09:41:24;24.40;99.90
9311;DHT22;4694;52.464;13.480;2022-08-19T09:43:54;24.80;99.90
9311;DHT22;4694;52.464;13.480;2022-08-19T09:46:23;24.80;99.90
9311;DHT22;4694;52.464;13.480;2022-08-19T09:48:50;24.50;99.90
9311;DHT22;4694;52.464;13.480;2022-08-19T09:51:21;24.40;99.90
9311;DHT22;4694;52.464;13.480;2022-08-19T09:53:49;24.60;99.90
9311;DHT22;4694;52.464;13.480;2022-08-19T09:56:17;24.60;99.90
9311;DHT22;4694;52.464;13.480;2022-08-19T09:58:45;24.90;99.90
9311;DHT22;4694;52.464;13.480;2022-08-19T10:01:17;25.00;99.90
9311;DHT22;4694;52.464;13.480;2022-08-19T10:03:47;25.00;99.90
9311;DHT22;4694;52.464;13.480;2022-08-19T10:06:14;25.10;99.90
9311;DHT22;4694;52.464;13.480;2022-08-19T10:08:41;25.00;99.90
9311;DHT22;4694;52.464;13.480;2022-08-19T10:11:09;25.00;99.90
9311;DHT22;4694;52.464;13.480;2022-08-19T10:13:35;24.90;99.90
9311;DHT22;4694;52.464;13.480;2022-08-19T10:16:05;24.90;99.90
9311;DHT22;4694;52.464;13.480;2022-08-19T10:18:34;25.10;99.90
9311;DHT22;4694;52.464;13.480;2022-08-19T10:21:05;25.10;99.90
9311;DHT22;4694;52.464;13.480;2022-08-19T10:23:35;24.50;99.90
9311;DHT22;4694;52.464;13.480;2022-08-19T10:26:03;24.90;99.90
9311;DHT22;4694;52.464;13.480;2022-08-19T10:28:32;24.80;99.90
9311;DHT22;4694;52.464;13.480;2022-08-19T10:31:03;24.70;99.90
9311;DHT22;4694;52.464;13.480;2022-08-19T10:33:33;24.70;99.90
9311;DHT22;4694;52.464;13.480;2022-08-19T10:36:01;24.70;99.90
9311;DHT22;4694;52.464;13.480;2022-08-19T10:38:28;24.60;99.90
9311;DHT22;4694;52.464;13.480;2022-08-19T10:40:55;24.70;99.90
9311;DHT22;4694;52.464;13.480;2022-08-19T10:43:22;24.90;99.90
9311;DHT22;4694;52.464;13.480;2022-08-19T10:45:52;24.90;99.90
9311;DHT22;4694;52.464;13.480;2022-08-19T10:48:19;24.90;99.90
9311;DHT22;4694;52.464;13.480;2022-08-19T10:50:47;24.80;99.90
9311;DHT22;4694;52.464;13.480;2022-08-19T10:53:31;24.80;99.90
9311;DHT22;4694;52.464;13.480;2022-08-19T10:55:57;24.90;99.90
9311;DHT22;4694;52.464;13.480;2022-08-19T10:58:42;24.90;99.90
9311;DHT22;4694;52.464;13.480;2022-08-19T11:01:11;24.80;99.90
9311;DHT22;4694;52.464;13.480;2022-08-19T11:03:37;24.40;99.90
9311;DHT22;4694;52.464;13.480;2022-08-19T11:06:08;24.60;99.90
9311;DHT22;4694;52.464;13.480;2022-08-19T11:08:35;24.50;99.90
9311;DHT22;4694;52.464;13.480;2022-08-19T11:11:04;24.50;99.90
9311;DHT22;4694;52.464;13.480;2022-08-19T11:13:32;24.50;99.90
9311;DHT22;4694;52.464;13.480;2022-08-19T11:16:03;24.50;99.90
9311;DHT22;4694;52.464;13.480;2022-08-19T11:18:30;24.40;99.90
9311;DHT22;4694;52.464;13.480;2022-08-19T11:21:07;24.50;99.90
9311;DHT22;4694;52.464;13.480;2022-08-19T11:23:33;24.50;99.90
9311;DHT22;4694;52.464;13.480;2022-08-19T11:26:00;24.60;99.90
9311;DHT22;4694;52.464;13.480;2022-08-19T11:28:27;24.50;99.90
9311;DHT22;4694;52.464;13.480;2022-08-19T11:30:54;24.50;99.90
9311;DHT22;4694;52.464;13.480;2022-08-19T11:33:20;24.50;99.90
9311;DHT22;4694;52.464;13.480;2022-08-19T11:35:47;24.30;99.90
9311;DHT22;4694;52.464;13.480;2022-08-19T11:38:16;24.30;99.90
9311;DHT22;4694;52.464;13.480;2022-08-19T11:40:43;24.40;99.90
9311;DHT22;4694;52.464;13.480;2022-08-19T11:43:10;24.30;99.90
9311;DHT22;4694;52.464;13.480;2022-08-19T11:45:37;24.30;99.90
9311;DHT22;4694;52.464;13.480;2022-08-19T11:48:03;24.30;99.90
9311;DHT22;4694;52.464;13.480;2022-08-19T11:50:30;24.30;99.90
9311;DHT22;4694;52.464;13.480;2022-08-19T11:52:57;24.60;99.90
9311;DHT22;4694;52.464;13.480;2022-08-19T11:55:25;24.60;99.90
9311;DHT22;4694;52.464;13.480;2022-08-19T11:57:51;24.70;99.90
9311;DHT22;4694;52.464;13.480;2022-08-19T12:00:18;24.70;99.90
9311;DHT22;4694;52.464;13.480;2022-08-19T12:02:45;24.60;99.90
9311;DHT22;4694;52.464;13.480;2022-08-19T12:05:12;24.80;99.90
9311;DHT22;4694;52.464;13.480;2022-08-19T12:07:39;24.60;99.90
9311;DHT22;4694;52.464;13.480;2022-08-19T12:10:09;24.40;99.90
9311;DHT22;4694;52.464;13.480;2022-08-19T12:12:38;24.30;99.90
9311;DHT22;4694;52.464;13.480;2022-08-19T12:15:08;24.30;99.90
9311;DHT22;4694;52.464;13.480;2022-08-19T12:17:36;24.50;99.90
9311;DHT22;4694;52.464;13.480;2022-08-19T12:20:04;24.70;99.90
9311;DHT22;4694;52.464;13.480;2022-08-19T12:22:31;25.00;99.90
9311;DHT22;4694;52.464;13.480;2022-08-19T12:24:57;24.90;99.90
9311;DHT22;4694;52.464;13.480;2022-08-19T12:27:24;25.00;99.90
9311;DHT22;4694;52.464;13.480;2022-08-19T12:29:52;25.00;99.90
9311;DHT22;4694;52.464;13.480;2022-08-19T12:32:19;25.00;99.90
9311;DHT22;4694;52.464;13.480;2022-08-19T12:34:46;25.00;99.90
9311;DHT22;4694;52.464;13.480;2022-08-19T12:37:13;25.00;99.90
9311;DHT22;4694;52.464;13.480;2022-08-19T12:39:42;25.00;99.90
9311;DHT22;4694;52.464;13.480;2022-08-19T12:42:09;24.80;99.90
9311;DHT22;4694;52.464;13.480;2022-08-19T12:44:37;24.80;99.90
9311;DHT22;4694;52.464;13.480;2022-08-19T12:47:07;25.00;99.90
9311;DHT22;4694;52.464;13.480;2022-08-19T12:49:34;25.00;99.90
9311;DHT22;4694;52.464;13.480;2022-08-19T12:52:03;25.20;99.90
9311;DHT22;4694;52.464;13.480;2022-08-19T12:54:30;25.20;99.90
9311;DHT22;4694;52.464;13.480;2022-08-19T12:56:57;25.10;99.90
9311;DHT22;4694;52.464;13.480;2022-08-19T12:59:24;25.00;99.90
9311;DHT22;4694;52.464;13.480;2022-08-19T13:01:51;24.90;99.90
9311;DHT22;4694;52.464;13.480;2022-08-19T13:04:19;25.10;99.90
9311;DHT22;4694;52.464;13.480;2022-08-19T13:06:46;24.90;99.90
9311;DHT22;4694;52.464;13.480;2022-08-19T13:09:12;24.80;99.90
9311;DHT22;4694;52.464;13.480;2022-08-19T13:11:39;25.00;99.90
9311;DHT22;4694;52.464;13.480;2022-08-19T13:14:06;24.80;99.90
9311;DHT22;4694;52.464;13.480;2022-08-19T13:16:32;24.70;99.90
9311;DHT22;4694;52.464;13.480;2022-08-19T13:18:59;24.80;99.90
9311;DHT22;4694;52.464;13.480;2022-08-19T13:21:29;24.60;99.90
9311;DHT22;4694;52.464;13.480;2022-08-19T13:23:56;24.50;99.90
9311;DHT22;4694;52.464;13.480;2022-08-19T13:26:23;24.70;99.90
9311;DHT22;4694;52.464;13.480;2022-08-19T13:28:50;24.70;99.90
9311;DHT22;4694;52.464;13.480;2022-08-19T13:31:39;24.70;99.90
9311;DHT22;4694;52.464;13.480;2022-08-19T13:34:28;24.60;99.90
9311;DHT22;4694;52.464;13.480;2022-08-19T13:36:56;24.60;99.90
9311;DHT22;4694;52.464;13.480;2022-08-19T13:39:23;24.60;99.90
9311;DHT22;4694;52.464;13.480;2022-08-19T13:41:50;24.60;99.90
9311;DHT22;4694;52.464;13.480;2022-08-19T13:44:17;24.70;99.90
9311;DHT22;4694;52.464;13.480;2022-08-19T13:46:44;25.20;99.90
9311;DHT22;4694;52.464;13.480;2022-08-19T13:49:11;25.20;99.90
9311;DHT22;4694;52.464;13.480;2022-08-19T13:51:40;25.20;99.90
9311;DHT22;4694;52.464;13.480;2022-08-19T13:54:09;25.10;99.90
9311;DHT22;4694;52.464;13.480;2022-08-19T13:56:40;25.10;99.90
9311;DHT22;4694;52.464;13.480;2022-08-19T13:59:07;25.00;99.90
9311;DHT22;4694;52.464;13.480;2022-08-19T14:01:34;24.80;99.90
9311;DHT22;4694;52.464;13.480;2022-08-19T14:04:01;24.90;99.90
9311;DHT22;4694;52.464;13.480;2022-08-19T14:06:28;24.80;99.90
9311;DHT22;4694;52.464;13.480;2022-08-19T14:08:55;24.90;99.90
9311;DHT22;4694;52.464;13.480;2022-08-19T14:11:23;24.90;99.90
9311;DHT22;4694;52.464;13.480;2022-08-19T14:13:49;24.90;99.90
9311;DHT22;4694;52.464;13.480;2022-08-19T14:16:16;24.60;99.90
9311;DHT22;4694;52.464;13.480;2022-08-19T14:18:43;24.90;99.90
9311;DHT22;4694;52.464;13.480;2022-08-19T14:21:16;24.90;99.90
9311;DHT22;4694;52.464;13.480;2022-08-19T14:23:43;24.90;99.90
9311;DHT22;4694;52.464;13.480;2022-08-19T14:26:12;24.70;99.90
9311;DHT22;4694;52.464;13.480;2022-08-19T14:28:41;24.60;99.90
9311;DHT22;4694;52.464;13.480;2022-08-19T14:31:09;24.60;99.90
9311;DHT22;4694;52.464;13.480;2022-08-19T14:33:36;24.70;99.90
9311;DHT22;4694;52.464;13.480;2022-08-19T14:36:03;24.70;99.90
9311;DHT22;4694;52.464;13.480;2022-08-19T14:38:30;24.70;99.90
9311;DHT22;4694;52.464;13.480;2022-08-19T14:41:06;24.50;99.90
9311;DHT22;4694;52.464;13.480;2022-08-19T14:43:33;24.60;99.90
9311;DHT22;4694;52.464;13.480;2022-08-19T14:46:01;24.60;99.90
9311;DHT22;4694;52.464;13.480;2022-08-19T14:48:27;24.70;99.90
9311;DHT22;4694;52.464;13.480;2022-08-19T14:50:54;24.70;99.90
9311;DHT22;4694;52.464;13.480;2022-08-19T14:53:21;24.70;99.90
9311;DHT22;4694;52.464;13.480;2022-08-19T14:55:47;24.70;99.90
9311;DHT22;4694;52.464;13.480;2022-08-19T14:58:14;24.80;99.90
9311;DHT22;4694;52.464;13.480;2022-08-19T15:00:41;24.60;99.90
9311;DHT22;4694;52.464;13.480;2022-08-19T15:03:09;24.70;99.90
9311;DHT22;4694;52.464;13.480;2022-08-19T15:05:36;24.70;99.90
9311;DHT22;4694;52.464;13.480;2022-08-19T15:08:03;24.60;99.90
9311;DHT22;4694;52.464;13.480;2022-08-19T15:10:30;24.60;99.90
9311;DHT22;4694;52.464;13.480;2022-08-19T15:12:57;24.60;99.90
9311;DHT22;4694;52.464;13.480;2022-08-19T15:15:25;24.50;99.90
9311;DHT22;4694;52.464;13.480;2022-08-19T15:17:51;24.40;99.90
9311;DHT22;4694;52.464;13.480;2022-08-19T15:20:20;24.40;99.90
9311;DHT22;4694;52.464;13.480;2022-08-19T15:22:48;24.30;99.90
9311;DHT22;4694;52.464;13.480;2022-08-19T15:25:17;24.30;99.90
9311;DHT22;4694;52.464;13.480;2022-08-19T15:27:44;24.30;99.90
9311;DHT22;4694;52.464;13.480;2022-08-19T15:30:11;24.40;99.90
9311;DHT22;4694;52.464;13.480;2022-08-19T15:32:38;24.30;99.90
9311;DHT22;4694;52.464;13.480;2022-08-19T15:35:06;24.20;99.90
9311;DHT22;4694;52.464;13.480;2022-08-19T15:37:34;24.00;99.90
9311;DHT22;4694;52.464;13.480;2022-08-19T15:40:02;24.00;99.90
9311;DHT22;4694;52.464;13.480;2022-08-19T15:42:29;24.00;99.90
9311;DHT22;4694;52.464;13.480;2022-08-19T15:44:55;24.00;99.90
9311;DHT22;4694;52.464;13.480;2022-08-19T15:47:22;24.00;99.90
9311;DHT22;4694;52.464;13.480;2022-08-19T15:49:49;23.90;99.90
9311;DHT22;4694;52.464;13.480;2022-08-19T15:52:19;24.00;99.90